Time;durP1;ratioP1;P1;durP2;ratioP2;P2;SDS_P1;SDS_P2;PMS_P1;PMS_P2;Temp;Humidity;BMP_temperature;BMP_pressure;BME280_temperature;BME280_humidity;BME280_pressure;Samples;Min_cycle;Max_cycle;Signal;HPM_P1;HPM_P2
2023/03/16 00:02:06;;;;;;;12.07;5.85;;;;;;;4.36;78.88;101732.94;4894385;29;20066;-92
2023/03/16 00:04:36;;;;;;;11.95;6.50;;;;;;;4.35;78.82;101741.47;4894948;29;20042;-92
2023/03/16 00:07:02;;;;;;;;;;;;;;;4.40;78.06;101741.75;4889659;29;20028;-92
2023/03/16 00:09:29;;;;;;;11.32;6.20;;;;;;;4.39;78.59;101739.97;4909133;29;19946;-92
2023/03/16 00:11:59;;;;;;;12.02;6.43;;;;;;;4.38;79.10;101733.06;4892961;29;20455;-92
2023/03/16 00:14:25;;;;;;;;;;;;;;;4.43;77.57;101723.88;4895269;29;20028;-92
2023/03/16 00:16:50;;;;;;;10.70;5.88;;;;;;;4.41;78.50;101718.63;4894643;29;19967;-92
2023/03/16 00:19:16;;;;;;;11.32;6.53;;;;;;;4.39;78.51;101724.50;4890974;29;20039;-92
2023/03/16 00:21:41;;;;;;;10.13;6.10;;;;;;;4.42;78.58;101724.69;4898541;29;20016;-91
2023/03/16 00:24:11;;;;;;;11.82;6.00;;;;;;;4.40;79.03;101718.53;4915796;29;20135;-92
2023/03/16 00:26:41;;;;;;;11.10;6.22;;;;;;;4.40;80.20;101710.81;4908857;29;20035;-92
2023/03/16 00:29:06;;;;;;;11.98;6.43;;;;;;;4.37;78.96;101708.91;4894794;29;20525;-92
2023/03/16 00:31:32;;;;;;;12.50;6.50;;;;;;;4.39;79.74;101716.75;4897956;29;20028;-91
2023/03/16 00:33:57;;;;;;;12.63;6.32;;;;;;;4.39;79.91;101711.59;4894409;29;20043;-92
2023/03/16 00:36:23;;;;;;;10.85;5.85;;;;;;;4.37;79.41;101711.50;4895355;29;20028;-93
2023/03/16 00:38:48;;;;;;;12.25;6.45;;;;;;;4.37;79.48;101710.63;4914163;29;20027;-92
2023/03/16 00:41:14;;;;;;;10.73;6.55;;;;;;;4.36;80.26;101704.56;4914662;29;20098;-92
2023/03/16 00:43:44;;;;;;;10.93;6.35;;;;;;;4.33;79.70;101694.94;4896902;29;20747;-92
2023/03/16 00:46:15;;;;;;;10.15;6.10;;;;;;;4.32;80.34;101695.72;4897606;29;20075;-92
2023/03/16 00:48:43;;;;;;;11.32;6.05;;;;;;;4.33;80.07;101694.03;4913229;29;20043;-91
2023/03/16 00:51:11;;;;;;;11.75;6.65;;;;;;;4.31;79.66;101691.34;4903685;29;20510;-90
2023/03/16 00:53:38;;;;;;;12.30;6.30;;;;;;;4.33;79.59;101684.63;4895802;29;20052;-90
2023/03/16 00:56:05;;;;;;;10.73;6.47;;;;;;;4.34;80.36;101688.09;4910507;29;20068;-93
2023/03/16 00:58:34;;;;;;;12.02;6.45;;;;;;;4.33;80.83;101687.22;4895925;29;20087;-92
2023/03/16 01:01:09;;;;;;;9.43;6.40;;;;;;;4.34;80.40;101676.09;4888900;29;20118;-91
2023/03/16 01:03:35;;;;;;;10.75;6.32;;;;;;;4.34;79.98;101676.09;4897549;29;20032;-91
2023/03/16 01:06:16;;;;;;;12.05;6.00;;;;;;;4.34;80.76;101665.78;4909655;29;20051;-91
2023/03/16 01:08:42;;;;;;;10.35;6.03;;;;;;;4.33;81.15;101674.31;4896484;29;20032;-91
2023/03/16 01:11:18;;;;;;;11.05;6.70;;;;;;;4.32;80.49;101666.47;4912677;29;20032;-93
2023/03/16 01:13:46;;;;;;;12.77;6.38;;;;;;;4.29;80.91;101659.44;4896039;29;20476;-91
2023/03/16 01:16:11;;;;;;;11.88;6.10;;;;;;;4.29;81.14;101656.84;4912883;29;20032;-92
2023/03/16 01:18:37;;;;;;;10.20;5.90;;;;;;;4.29;81.01;101645.66;4897733;29;20513;-92
2023/03/16 01:21:06;;;;;;;9.65;6.25;;;;;;;4.28;80.92;101644.75;4897308;29;20032;-91
2023/03/16 01:23:32;;;;;;;11.82;6.30;;;;;;;4.30;81.23;101638.00;4896530;29;20115;-91
2023/03/16 01:26:01;;;;;;;10.60;6.03;;;;;;;4.27;81.38;101631.75;4895815;29;20542;-91
2023/03/16 01:28:29;;;;;;;11.07;6.30;;;;;;;4.25;81.11;101631.66;4903584;29;20091;-91
2023/03/16 01:31:01;;;;;;;12.48;6.10;;;;;;;4.25;81.63;101626.50;4894225;29;20032;-92
2023/03/16 01:33:28;;;;;;;10.93;6.07;;;;;;;4.25;80.83;101629.06;4910529;29;20024;-91
2023/03/16 01:35:59;;;;;;;13.02;6.20;;;;;;;4.26;81.28;101628.28;4894623;29;20645;-92
2023/03/16 01:38:25;;;;;;;12.10;6.22;;;;;;;4.28;80.90;101618.94;4906773;29;20080;-91
2023/03/16 01:40:53;;;;;;;11.70;6.50;;;;;;;4.29;81.24;101619.84;4909237;29;20474;-91
2023/03/16 01:43:20;;;;;;;12.05;5.63;;;;;;;4.30;81.64;101627.69;4893786;29;20051;-91
2023/03/16 01:46:20;;;;;;;12.25;6.03;;;;;;;4.32;81.03;101620.91;4894938;29;20035;-92
2023/03/16 01:48:47;;;;;;;10.38;5.80;;;;;;;4.34;81.75;101621.91;4899641;29;20032;-96
2023/03/16 01:51:27;;;;;;;9.85;6.03;;;;;;;4.32;80.94;101620.91;4903500;29;20375;-95
2023/03/16 01:53:59;;;;;;;10.30;5.88;;;;;;;4.31;81.03;101611.38;4902152;29;20055;-95
2023/03/16 01:56:33;;;;;;;10.15;6.10;;;;;;;4.30;81.15;101609.63;4899990;29;20028;-96
2023/03/16 01:59:08;;;;;;;11.52;5.65;;;;;;;4.30;81.65;101614.78;4901323;29;20052;-96
2023/03/16 02:01:34;;;;;;;10.05;5.88;;;;;;;4.29;81.16;101610.41;4898399;29;20486;-96
2023/03/16 02:04:24;;;;;;;11.05;6.35;;;;;;;4.29;82.02;101615.56;4903919;29;20031;-96
2023/03/16 02:06:54;;;;;;;10.57;6.13;;;;;;;4.29;81.60;101609.53;4900670;29;20488;-95
2023/03/16 02:09:19;;;;;;;;;;;;;;;4.34;81.00;101608.09;4901830;29;20039;-96
2023/03/16 02:11:46;;;;;;;10.27;6.07;;;;;;;4.31;80.97;101600.19;4901758;29;19915;-96
2023/03/16 02:14:13;;;;;;;8.57;5.25;;;;;;;4.28;81.27;101598.31;4897864;29;20111;-95
2023/03/16 02:16:39;;;;;;;11.93;5.90;;;;;;;4.31;81.97;101598.47;4897426;29;20036;-96
2023/03/16 02:19:11;;;;;;;9.88;5.78;;;;;;;4.31;81.29;101597.59;4901276;29;20060;-96
2023/03/16 02:21:57;;;;;;;9.77;5.85;;;;;;;4.34;82.05;101598.69;4899809;29;20057;-91
2023/03/16 02:24:23;;;;;;;11.68;6.20;;;;;;;4.34;81.80;101593.53;4895796;29;20032;-92
2023/03/16 02:26:56;;;;;;;11.25;6.07;;;;;;;4.35;82.26;101592.72;4892725;29;20390;-92
2023/03/16 02:29:58;;;;;;;10.40;6.05;;;;;;;4.33;82.50;101591.75;4892712;29;20027;-91
2023/03/16 02:32:26;;;;;;;11.35;6.10;;;;;;;4.33;81.76;101590.84;4894630;29;20032;-92
2023/03/16 02:34:53;;;;;;;10.67;5.20;;;;;;;4.34;82.30;101587.47;4896016;29;20028;-92
2023/03/16 02:37:19;;;;;;;10.70;5.70;;;;;;;4.34;82.77;101585.81;4895589;29;20035;-92
2023/03/16 02:39:44;;;;;;;10.52;5.88;;;;;;;4.33;82.88;101586.59;4912264;29;20032;-92
2023/03/16 02:42:17;;;;;;;11.80;6.00;;;;;;;4.32;83.87;101589.97;4895961;29;20047;-92
2023/03/16 02:44:49;;;;;;;10.23;6.22;;;;;;;4.31;83.42;101590.75;4909256;29;20031;-91
2023/03/16 02:47:32;;;;;;;12.65;5.68;;;;;;;4.31;82.91;101597.59;4907698;29;20038;-92
2023/03/16 02:49:58;;;;;;;10.35;5.57;;;;;;;4.29;84.30;101594.94;4905003;29;20059;-92
2023/03/16 02:52:28;;;;;;;11.68;5.88;;;;;;;4.28;84.23;101593.13;4912331;29;20502;-91
2023/03/16 02:54:55;;;;;;;9.80;5.47;;;;;;;4.26;84.01;101580.94;4896326;29;20083;-92
2023/03/16 02:57:21;;;;;;;10.32;5.88;;;;;;;4.24;84.24;101583.44;4894725;29;20038;-91
2023/03/16 02:59:46;;;;;;;10.55;6.03;;;;;;;4.24;84.95;101582.53;4907824;29;20036;-92
2023/03/16 03:02:12;;;;;;;12.00;5.93;;;;;;;4.22;85.44;101566.97;4885556;29;20048;-92
2023/03/16 03:04:37;;;;;;;11.00;6.38;;;;;;;4.22;85.86;101566.97;4892880;29;20028;-92
2023/03/16 03:07:04;;;;;;;10.20;5.72;;;;;;;4.19;85.58;101571.97;4905387;29;20028;-91
2023/03/16 03:09:41;;;;;;;11.80;5.95;;;;;;;4.19;85.38;101566.78;4896025;29;20146;-92
2023/03/16 03:12:07;;;;;;;11.35;5.57;;;;;;;4.20;84.76;101573.75;4899227;29;20032;-91
2023/03/16 03:14:36;;;;;;;10.00;5.30;;;;;;;4.20;85.57;101568.59;4901586;29;20028;-91
2023/03/16 03:17:03;;;;;;;10.93;5.72;;;;;;;4.16;84.73;101562.34;4894683;29;20028;-92
2023/03/16 03:19:28;;;;;;;11.90;6.32;;;;;;;4.20;85.35;101565.09;4913130;29;20026;-92
2023/03/16 03:21:55;;;;;;;9.05;5.70;;;;;;;4.19;85.19;101566.78;4893849;29;20035;-91
2023/03/16 03:24:21;;;;;;;10.63;5.57;;;;;;;4.19;84.54;101559.06;4895003;29;20113;-92
2023/03/16 03:26:47;;;;;;;11.80;5.88;;;;;;;4.18;84.70;101568.47;4902015;29;20028;-91
2023/03/16 03:29:13;;;;;;;11.63;5.38;;;;;;;4.17;84.22;101552.91;4894789;29;20119;-91
2023/03/16 03:31:38;;;;;;;12.63;5.43;;;;;;;4.17;84.41;101558.97;4895125;29;20048;-92
2023/03/16 03:34:05;;;;;;;10.85;5.57;;;;;;;4.16;85.15;101564.91;4888542;29;20057;-91
2023/03/16 03:36:34;;;;;;;10.30;5.43;;;;;;;4.15;85.37;101554.50;4887247;29;20514;-92
2023/03/16 03:39:04;;;;;;;9.45;5.22;;;;;;;4.13;85.21;101545.81;4894792;29;20032;-91
2023/03/16 03:41:31;;;;;;;10.73;5.43;;;;;;;4.13;84.82;101550.97;4894489;29;20039;-92
2023/03/16 03:43:58;;;;;;;9.65;5.60;;;;;;;4.12;85.20;101544.00;4910814;29;20024;-91
2023/03/16 03:46:26;;;;;;;8.75;4.97;;;;;;;4.11;85.18;101548.28;4901853;29;20119;-93
2023/03/16 03:48:51;;;;;;;9.77;5.30;;;;;;;4.10;85.23;101551.66;4893307;29;20024;-92
2023/03/16 03:51:17;;;;;;;9.50;5.45;;;;;;;4.13;84.85;101554.41;4911046;29;20078;-92
2023/03/16 03:53:42;;;;;;;10.55;5.43;;;;;;;4.13;84.49;101558.69;4898178;29;20064;-91
2023/03/16 03:56:07;;;;;;;11.55;5.95;;;;;;;4.14;85.22;101553.63;4904171;29;20033;-91
2023/03/16 03:58:33;;;;;;;10.82;5.60;;;;;;;4.16;84.22;101551.13;4896720;29;20020;-91
2023/03/16 04:00:58;;;;;;;9.60;5.43;;;;;;;4.20;84.63;101547.03;4898862;29;20159;-91
2023/03/16 04:03:24;;;;;;;11.13;5.50;;;;;;;4.20;84.30;101537.63;4915279;29;20024;-92
2023/03/16 04:05:52;;;;;;;10.35;5.22;;;;;;;4.24;83.86;101543.84;4911031;29;20033;-91
2023/03/16 04:08:17;;;;;;;10.45;5.38;;;;;;;4.24;84.80;101534.41;4902883;29;20024;-91
2023/03/16 04:10:43;;;;;;;9.75;5.10;;;;;;;4.24;83.99;101534.41;4911125;29;20028;-91
2023/03/16 04:13:08;;;;;;;10.52;5.50;;;;;;;4.26;84.43;101532.84;4886901;29;20115;-92
2023/03/16 04:15:37;;;;;;;10.45;5.25;;;;;;;4.24;84.88;101524.09;4893118;29;20043;-92
2023/03/16 04:18:02;;;;;;;8.30;4.85;;;;;;;4.26;84.32;101526.78;4899400;29;20059;-92
2023/03/16 04:20:28;;;;;;;10.48;5.05;;;;;;;4.24;84.50;101518.94;4898591;29;20141;-92
2023/03/16 04:22:57;;;;;;;9.30;5.35;;;;;;;4.25;84.69;101520.72;4910189;29;20107;-92
2023/03/16 04:25:24;;;;;;;8.45;4.53;;;;;;;4.26;83.90;101532.84;4905499;29;20031;-91
2023/03/16 04:27:50;;;;;;;8.77;4.63;;;;;;;4.27;84.29;101524.31;4909549;29;20032;-93
2023/03/16 04:30:18;;;;;;;9.10;4.68;;;;;;;4.28;84.80;101533.81;4899063;29;20486;-91
2023/03/16 04:32:44;;;;;;;8.40;4.32;;;;;;;4.27;83.93;101524.31;4913339;29;20536;-91
2023/03/16 04:35:10;;;;;;;13.45;5.00;;;;;;;4.29;83.71;101525.28;4908505;29;20024;-92
2023/03/16 04:37:35;;;;;;;9.27;4.70;;;;;;;4.30;83.90;101527.06;4905705;29;20479;-92
2023/03/16 04:40:08;;;;;;;7.88;4.38;;;;;;;4.31;83.67;101523.66;4898021;29;20727;-91
2023/03/16 04:42:37;;;;;;;7.70;4.18;;;;;;;4.32;84.10;101522.88;4898528;29;20035;-92
2023/03/16 04:45:02;;;;;;;8.38;4.63;;;;;;;4.32;83.89;101517.72;4897246;29;20107;-92
2023/03/16 04:47:29;;;;;;;9.75;3.92;;;;;;;4.32;83.88;101512.56;4897718;29;20071;-91
2023/03/16 04:49:54;;;;;;;8.70;4.30;;;;;;;4.34;84.27;101510.97;4897648;29;20024;-90
2023/03/16 04:52:20;;;;;;;8.38;4.05;;;;;;;4.37;83.05;101509.38;4897319;29;20052;-92
2023/03/16 04:54:45;;;;;;;8.77;4.78;;;;;;;4.40;83.79;101513.00;4896181;29;20024;-91
2023/03/16 04:57:11;;;;;;;8.68;4.38;;;;;;;4.41;84.53;101514.78;4898398;29;20032;-92
2023/03/16 04:59:36;;;;;;;8.20;4.15;;;;;;;4.41;84.37;101507.06;4898684;29;20084;-91
2023/03/16 05:02:02;;;;;;;10.77;4.72;;;;;;;4.40;85.00;101513.00;4897633;29;20024;-93
2023/03/16 05:04:28;;;;;;;10.25;4.35;;;;;;;4.40;84.36;101510.44;4913485;29;20028;-91
2023/03/16 05:06:53;;;;;;;8.02;4.00;;;;;;;4.42;84.95;101511.41;4896586;29;20410;-91
2023/03/16 05:09:19;;;;;;;9.27;4.40;;;;;;;4.39;84.97;101506.09;4898011;29;20067;-92
2023/03/16 05:11:45;;;;;;;8.57;4.50;;;;;;;4.39;84.98;101505.19;4897575;29;20486;-92
2023/03/16 05:14:10;;;;;;;8.55;4.38;;;;;;;4.39;84.41;101510.34;4896492;29;20027;-91
2023/03/16 05:16:35;;;;;;;8.10;4.30;;;;;;;4.39;85.35;101507.75;4914613;29;20652;-92
2023/03/16 05:19:01;;;;;;;8.50;4.28;;;;;;;4.36;85.61;101493.00;4897680;29;20024;-92
2023/03/16 05:21:26;;;;;;;6.63;3.97;;;;;;;4.39;85.97;101497.44;4895746;29;20028;-91
2023/03/16 05:23:52;;;;;;;9.52;4.40;;;;;;;4.38;86.37;101487.94;4895950;29;20693;-92
2023/03/16 05:26:20;;;;;;;8.07;4.30;;;;;;;4.39;85.50;101495.75;4914373;29;20043;-92
2023/03/16 05:28:46;;;;;;;9.40;3.80;;;;;;;4.39;86.59;101492.28;4897618;29;20031;-93
2023/03/16 05:31:14;;;;;;;9.13;4.63;;;;;;;4.39;86.19;101492.28;4897827;29;20040;-92
2023/03/16 05:33:43;;;;;;;10.25;4.18;;;;;;;4.40;86.05;101494.06;4913676;29;20621;-92
2023/03/16 05:36:11;;;;;;;7.55;4.10;;;;;;;4.43;85.98;101491.66;4895834;29;20024;-92
2023/03/16 05:38:38;;;;;;;6.97;3.87;;;;;;;4.44;86.16;101496.03;4896506;29;20056;-92
2023/03/16 05:41:04;;;;;;;9.63;4.15;;;;;;;4.44;86.22;101480.56;4896319;29;20071;-92
2023/03/16 05:43:29;;;;;;;9.45;4.20;;;;;;;4.47;86.15;101480.72;4895885;29;20598;-92
2023/03/16 05:45:56;;;;;;;8.65;3.85;;;;;;;4.45;86.23;101474.59;4914111;29;20111;-91
2023/03/16 05:48:24;;;;;;;8.63;4.07;;;;;;;4.46;86.34;101466.03;4913662;29;20032;-92
2023/03/16 05:50:51;;;;;;;9.02;3.95;;;;;;;4.48;85.91;101478.22;4896516;29;20055;-92
2023/03/16 05:53:16;;;;;;;8.85;4.00;;;;;;;4.48;86.19;101461.88;4903099;29;20611;-92
2023/03/16 05:55:41;;;;;;;9.18;4.15;;;;;;;4.52;85.57;101466.41;4884552;29;20039;-91
2023/03/16 05:58:07;;;;;;;8.63;3.85;;;;;;;4.53;85.67;101465.59;4900721;29;20487;-92
2023/03/16 06:00:32;;;;;;;7.72;3.72;;;;;;;4.52;85.89;101463.84;4885645;29;20474;-93
2023/03/16 06:02:58;;;;;;;8.52;4.28;;;;;;;4.55;85.72;101466.59;4884432;29;20040;-92
2023/03/16 06:05:24;;;;;;;6.63;3.63;;;;;;;4.55;85.39;101468.25;4883518;29;20483;-92
2023/03/16 06:07:51;;;;;;;10.85;3.90;;;;;;;4.56;85.54;101464.88;4897320;29;20113;-92
2023/03/16 06:10:19;;;;;;;7.65;3.85;;;;;;;4.56;85.90;101459.72;4885279;29;20108;-92
2023/03/16 06:12:44;;;;;;;7.70;3.65;;;;;;;4.57;85.57;101461.50;4886610;29;20032;-91
2023/03/16 06:15:10;;;;;;;7.15;3.67;;;;;;;4.58;84.83;101469.34;4883315;29;20032;-92
2023/03/16 06:17:40;;;;;;;9.13;3.72;;;;;;;4.59;85.02;101468.56;4885172;29;20558;-91
2023/03/16 06:20:09;;;;;;;7.47;3.60;;;;;;;4.60;84.32;101464.25;4885113;29;20167;-92
2023/03/16 06:22:35;;;;;;;;;;;;;;;4.67;84.22;101467.28;4883108;29;20111;-92
2023/03/16 06:25:00;;;;;;;9.15;3.60;;;;;;;4.67;84.15;101469.84;4884082;29;20009;-92
2023/03/16 06:27:27;;;;;;;7.78;3.78;;;;;;;4.68;83.94;101463.03;4902366;29;20076;-96
2023/03/16 06:29:52;;;;;;;8.70;3.80;;;;;;;4.68;85.00;101466.50;4884585;29;20064;-96
2023/03/16 06:32:18;;;;;;;7.75;3.80;;;;;;;4.67;84.20;101459.53;4888139;29;20446;-96
2023/03/16 06:34:43;;;;;;;9.23;4.05;;;;;;;4.69;84.70;101460.53;4889937;29;20065;-96
2023/03/16 06:37:09;;;;;;;9.60;4.43;;;;;;;4.69;85.34;101460.53;4887423;29;20028;-96
2023/03/16 06:39:34;;;;;;;10.85;4.18;;;;;;;4.70;84.92;101454.53;4885626;29;20451;-95
2023/03/16 06:42:00;;;;;;;8.48;4.20;;;;;;;4.72;86.13;101456.34;4897731;29;20056;-96
2023/03/16 06:44:25;;;;;;;7.88;3.90;;;;;;;4.76;85.71;101459.16;4889833;29;20056;-96
2023/03/16 06:46:50;;;;;;;8.23;4.00;;;;;;;4.73;86.40;101460.69;4885788;29;20024;-96
2023/03/16 06:49:16;;;;;;;7.03;3.90;;;;;;;4.71;86.90;101455.44;4886110;29;20036;-96
2023/03/16 06:51:41;;;;;;;10.55;4.38;;;;;;;4.70;87.29;101446.78;4883948;29;20611;-95
2023/03/16 06:54:07;;;;;;;8.50;3.65;;;;;;;4.70;87.78;101439.06;4903562;29;20490;-96
2023/03/16 06:56:35;;;;;;;9.02;4.30;;;;;;;4.73;86.25;101452.97;4902351;29;20035;-96
2023/03/16 06:59:01;;;;;;;7.35;3.78;;;;;;;4.73;87.63;101450.38;4897517;29;20028;-96
2023/03/16 07:01:26;;;;;;;8.02;3.80;;;;;;;4.77;86.26;101455.78;4900755;29;20039;-95
2023/03/16 07:03:52;;;;;;;10.60;4.25;;;;;;;4.79;86.78;101458.47;4901345;29;20657;-95
2023/03/16 07:06:17;;;;;;;7.95;3.72;;;;;;;4.82;86.37;101453.47;4899748;29;20020;-96
2023/03/16 07:08:45;;;;;;;8.63;4.35;;;;;;;4.84;86.37;101444.13;4899983;29;20139;-96
2023/03/16 07:11:10;;;;;;;10.20;4.45;;;;;;;4.85;86.76;101451.97;4902308;29;20095;-96
2023/03/16 07:13:36;;;;;;;9.13;4.60;;;;;;;4.88;87.53;101457.31;4901963;29;20451;-96
2023/03/16 07:16:03;;;;;;;10.00;4.28;;;;;;;4.90;85.96;101449.63;4900331;29;20606;-96
2023/03/16 07:18:30;;;;;;;9.18;4.07;;;;;;;4.95;85.68;101450.75;4901309;29;20055;-96
2023/03/16 07:20:56;;;;;;;6.80;3.83;;;;;;;4.98;85.55;101444.88;4901086;29;20039;-96
2023/03/16 07:23:25;;;;;;;7.95;3.90;;;;;;;5.05;85.96;101441.84;4900909;29;20091;-96
2023/03/16 07:25:51;;;;;;;8.70;4.20;;;;;;;5.09;84.78;101441.22;4899624;29;20037;-96
2023/03/16 07:28:20;;;;;;;8.65;4.25;;;;;;;5.12;85.45;101448.25;4900413;29;20119;-96
2023/03/16 07:30:46;;;;;;;7.60;3.97;;;;;;;5.14;84.42;101441.47;4900940;29;20051;-96
2023/03/16 07:33:13;;;;;;;8.05;4.13;;;;;;;5.18;84.81;101433.09;4904015;29;20498;-96
2023/03/16 07:35:38;;;;;;;10.55;4.55;;;;;;;5.21;85.83;101439.31;4900728;29;20487;-96
2023/03/16 07:38:04;;;;;;;7.43;3.63;;;;;;;5.29;84.53;101436.28;4899762;29;20024;-96
2023/03/16 07:40:30;;;;;;;6.80;4.00;;;;;;;5.31;84.16;101435.53;4916377;29;20024;-96
2023/03/16 07:43:00;;;;;;;6.80;3.95;;;;;;;5.33;84.60;101444.28;4899866;29;20063;-96
2023/03/16 07:45:29;;;;;;;7.90;3.67;;;;;;;5.34;83.58;101438.28;4898804;29;20083;-96
2023/03/16 07:47:55;;;;;;;9.85;4.20;;;;;;;5.37;83.84;101451.38;4897960;29;20032;-96
2023/03/16 07:50:21;;;;;;;7.55;3.70;;;;;;;5.40;83.58;101441.22;4897613;29;20028;-96
2023/03/16 07:52:49;;;;;;;8.45;3.70;;;;;;;5.45;82.38;101435.41;4896474;29;20642;-96
2023/03/16 07:55:23;;;;;;;9.27;4.05;;;;;;;5.46;82.27;101434.56;4903081;29;20024;-96
2023/03/16 07:57:50;;;;;;;7.68;3.90;;;;;;;5.48;82.20;101438.16;4903718;23;20478;-67
2023/03/16 08:00:16;;;;;;;7.75;3.90;;;;;;;5.51;82.20;101438.31;4894888;29;20117;-66
2023/03/16 08:02:41;;;;;;;9.05;4.35;;;;;;;5.54;82.27;101435.88;4892340;29;20514;-66
2023/03/16 08:05:09;;;;;;;10.27;3.92;;;;;;;5.54;81.49;101441.94;4892739;29;20040;-66
2023/03/16 08:07:34;;;;;;;9.77;4.57;;;;;;;5.57;82.11;101441.22;4889297;29;20039;-66
2023/03/16 08:10:00;;;;;;;6.55;4.00;;;;;;;5.64;82.08;101440.75;4895134;29;20036;-66
2023/03/16 08:12:25;;;;;;;7.05;3.78;;;;;;;5.66;81.86;101446.91;4875834;29;20040;-66
2023/03/16 08:14:50;;;;;;;7.05;4.07;;;;;;;5.69;80.82;101438.41;4893895;29;20039;-66
2023/03/16 08:17:16;;;;;;;9.60;4.32;;;;;;;5.73;80.92;101440.34;4892024;29;20043;-66
2023/03/16 08:19:41;;;;;;;9.00;4.45;;;;;;;5.78;80.17;101443.16;4888615;29;20024;-66
2023/03/16 08:22:07;;;;;;;9.90;4.40;;;;;;;5.82;80.64;101440.84;4890872;29;20051;-66
2023/03/16 08:24:32;;;;;;;8.55;4.25;;;;;;;5.85;79.42;101430.66;4889062;29;20032;-66
2023/03/16 08:26:59;;;;;;;9.50;4.45;;;;;;;5.90;81.06;101433.47;4890928;29;20050;-66
2023/03/16 08:29:25;;;;;;;8.27;4.30;;;;;;;5.94;80.68;101440.59;4889980;29;20029;-66
2023/03/16 08:31:55;;;;;;;9.10;4.50;;;;;;;5.97;79.82;101435.59;4890740;29;20461;-66
2023/03/16 08:34:21;;;;;;;7.13;3.88;;;;;;;6.01;78.93;101442.72;4888894;29;20119;-66
2023/03/16 08:36:46;;;;;;;7.55;3.85;;;;;;;6.04;79.02;101442.88;4890515;29;20496;-66
2023/03/16 08:39:12;;;;;;;8.68;4.78;;;;;;;6.08;80.35;101455.16;4893885;29;20088;-66
2023/03/16 08:41:39;;;;;;;9.02;4.53;;;;;;;6.12;78.63;101442.38;4894023;29;20028;-66
2023/03/16 08:44:06;;;;;;;9.68;4.25;;;;;;;6.18;78.17;101445.28;4893139;29;20151;-66
2023/03/16 08:46:32;;;;;;;8.15;4.18;;;;;;;6.20;78.75;101439.38;4892878;29;20174;-66
2023/03/16 08:48:58;;;;;;;10.70;4.50;;;;;;;6.24;78.78;101432.63;4915509;23;20651;-90
2023/03/16 08:51:23;;;;;;;8.55;4.13;;;;;;;6.29;76.95;101431.19;4892393;29;20123;-90
2023/03/16 08:53:49;;;;;;;8.30;4.20;;;;;;;6.32;78.15;101433.91;4892619;29;20047;-90
2023/03/16 08:56:14;;;;;;;7.97;3.72;;;;;;;6.38;78.03;101434.22;4886736;29;20532;-90
2023/03/16 08:58:44;;;;;;;6.72;3.83;;;;;;;6.48;75.91;101422.63;4894533;29;20671;-90
2023/03/16 09:01:16;;;;;;;9.00;4.10;;;;;;;6.46;75.95;101413.91;4908757;29;20513;-90
2023/03/16 09:03:41;;;;;;;7.93;4.30;;;;;;;6.50;76.31;101412.34;4889590;29;20124;-90
2023/03/16 09:06:09;;;;;;;10.00;4.57;;;;;;;6.54;76.43;101419.47;4875452;29;20116;-90
2023/03/16 09:08:35;;;;;;;9.15;4.10;;;;;;;6.56;76.05;101420.41;4891998;29;20084;-90
2023/03/16 09:11:09;;;;;;;9.05;4.22;;;;;;;6.62;74.96;101412.97;4876510;29;20036;-90
2023/03/16 09:13:37;;;;;;;8.68;4.03;;;;;;;6.70;74.40;101413.31;4875751;29;20029;-90
2023/03/16 09:16:04;;;;;;;6.03;3.60;;;;;;;6.75;75.89;101410.16;4892422;29;20120;-90
2023/03/16 09:18:30;;;;;;;7.93;3.42;;;;;;;6.86;74.06;101412.38;4876940;29;20044;-90
2023/03/16 09:21:00;;;;;;;8.50;3.83;;;;;;;6.96;73.65;101418.03;4876406;29;20044;-90
2023/03/16 09:23:26;;;;;;;7.25;4.22;;;;;;;7.05;73.52;101407.22;4893592;29;20049;-90
2023/03/16 09:25:52;;;;;;;8.77;4.00;;;;;;;7.14;74.34;101409.38;4876331;29;20118;-90
2023/03/16 09:28:18;;;;;;;6.57;3.72;;;;;;;7.23;73.66;101408.94;4894057;29;20115;-90
2023/03/16 09:30:43;;;;;;;7.47;3.80;;;;;;;7.29;73.68;101404.00;4891534;29;20024;-90
2023/03/16 09:33:09;;;;;;;6.75;3.78;;;;;;;7.33;71.98;101403.34;4875328;29;20550;-91
2023/03/16 09:35:35;;;;;;;8.65;4.10;;;;;;;7.41;72.91;101399.38;4893436;29;20115;-91
2023/03/16 09:38:01;;;;;;;7.35;3.60;;;;;;;7.48;70.97;101401.44;4876479;29;20068;-90
2023/03/16 09:40:27;;;;;;;7.35;3.67;;;;;;;7.54;71.32;101395.63;4874361;29;20063;-91
2023/03/16 09:43:17;;;;;;;7.45;3.55;;;;;;;7.57;71.54;101397.47;4892414;29;20033;-91
2023/03/16 09:45:51;;;;;;;7.35;3.38;;;;;;;7.62;70.54;101403.78;4893107;29;20220;-90
2023/03/16 09:48:19;;;;;;;10.13;4.07;;;;;;;7.76;70.13;101412.16;4890860;29;20186;-90
2023/03/16 09:50:47;;;;;;;6.18;3.33;;;;;;;7.88;68.81;101401.41;4874291;29;20028;-90
2023/03/16 09:53:30;;;;;;;6.53;3.40;;;;;;;8.06;67.86;101396.16;4873206;29;20028;-91
2023/03/16 09:56:08;;;;;;;6.90;3.47;;;;;;;8.19;71.54;101399.31;4875835;29;20056;-91
2023/03/16 09:58:35;;;;;;;6.85;3.47;;;;;;;8.31;68.49;101392.88;4890307;29;20028;-91
2023/03/16 10:01:19;;;;;;;5.95;3.38;;;;;;;8.41;69.14;101397.63;4874375;29;20422;-90
2023/03/16 10:04:01;;;;;;;7.88;3.67;;;;;;;8.40;66.61;101388.06;4882794;29;20037;-91
2023/03/16 10:06:27;;;;;;;8.07;4.10;;;;;;;8.40;67.75;101377.69;4893506;29;20059;-91
2023/03/16 10:09:19;;;;;;;9.77;3.47;;;;;;;8.56;69.15;101373.13;4873250;29;20037;-91
2023/03/16 10:11:50;;;;;;;6.38;3.42;;;;;;;8.71;66.22;101371.16;4892966;29;20411;-91
2023/03/16 10:14:26;;;;;;;6.53;3.58;;;;;;;8.84;65.72;101360.41;4892770;29;20036;-91
2023/03/16 10:17:00;;;;;;;6.65;3.30;;;;;;;8.99;64.72;101360.13;4892819;29;20040;-91
2023/03/16 10:19:36;;;;;;;8.50;3.10;;;;;;;9.17;64.72;101359.06;4891525;29;20039;-91
2023/03/16 10:22:14;;;;;;;6.28;3.30;;;;;;;9.29;62.92;101354.31;4866021;29;20028;-91
2023/03/16 10:25:00;;;;;;;6.53;3.53;;;;;;;9.47;64.46;101354.09;4892976;29;20084;-91
2023/03/16 10:27:29;;;;;;;6.15;3.17;;;;;;;9.65;63.06;101353.00;4893568;29;20032;-91
2023/03/16 10:29:55;;;;;;;6.22;3.03;;;;;;;9.68;60.75;101358.31;4889595;29;20052;-91
2023/03/16 10:32:23;;;;;;;5.95;3.15;;;;;;;9.65;64.22;101358.19;4874954;29;20043;-91
2023/03/16 10:34:57;;;;;;;5.53;2.85;;;;;;;9.80;63.73;101356.13;4891064;29;20385;-91
2023/03/16 10:37:29;;;;;;;6.32;2.88;;;;;;;9.92;59.51;101355.66;4874344;29;20029;-91
2023/03/16 10:39:56;;;;;;;5.45;2.80;;;;;;;9.87;60.25;101355.50;4873167;29;20032;-91
2023/03/16 10:42:24;;;;;;;5.57;2.90;;;;;;;9.91;61.39;101346.97;4874540;29;20033;-91
2023/03/16 10:44:57;;;;;;;5.83;2.87;;;;;;;10.01;61.07;101350.78;4890005;29;20145;-91
2023/03/16 10:47:29;;;;;;;5.05;2.50;;;;;;;10.10;61.96;101347.59;4874906;29;20580;-91
2023/03/16 10:49:54;;;;;;;5.95;2.60;;;;;;;10.19;59.75;101336.59;4890054;29;20056;-91
2023/03/16 10:52:38;;;;;;;7.60;3.13;;;;;;;10.25;59.78;101337.69;4890719;29;20112;-91
2023/03/16 10:55:14;;;;;;;5.47;2.85;;;;;;;10.33;60.66;101337.06;4872202;29;20136;-91
2023/03/16 10:57:42;;;;;;;7.68;3.33;;;;;;;10.40;59.27;101339.94;4889175;29;20035;-91
2023/03/16 11:00:14;;;;;;;6.32;3.03;;;;;;;10.47;59.52;101330.63;4874129;29;20029;-90
2023/03/16 11:02:40;;;;;;;6.25;3.10;;;;;;;10.52;59.59;101320.34;4891851;29;20764;-91
2023/03/16 11:05:18;;;;;;;6.57;2.80;;;;;;;10.57;60.63;101319.63;4891609;29;20491;-92
2023/03/16 11:08:12;;;;;;;6.85;2.90;;;;;;;10.66;60.47;101312.94;4891035;29;20024;-90
2023/03/16 11:10:44;;;;;;;7.28;3.00;;;;;;;10.63;58.07;101320.66;4856120;29;20044;-91
2023/03/16 11:13:16;;;;;;;5.60;2.90;;;;;;;10.59;58.63;101324.91;4873234;29;20044;-91
2023/03/16 11:15:45;;;;;;;5.93;2.97;;;;;;;10.56;60.40;101312.66;4891020;29;20032;-91
2023/03/16 11:18:47;;;;;;;5.28;2.90;;;;;;;10.56;58.58;101304.84;4889664;29;20032;-91
2023/03/16 11:21:24;;;;;;;5.00;2.38;;;;;;;10.54;57.64;101298.72;4874675;29;20040;-95
2023/03/16 11:23:54;;;;;;;5.82;2.70;;;;;;;10.56;57.14;101301.34;4874555;29;20025;-95
2023/03/16 11:26:27;;;;;;;6.78;2.60;;;;;;;10.65;59.82;101291.19;4875631;29;20021;-95
2023/03/16 11:29:02;;;;;;;6.25;2.42;;;;;;;10.73;56.67;101296.63;4883316;29;20029;-94
2023/03/16 11:31:41;;;;;;;6.43;2.53;;;;;;;10.73;58.12;101288.81;4875929;29;20119;-94
2023/03/16 11:34:18;;;;;;;5.97;2.53;;;;;;;10.76;56.48;101294.13;4891789;29;20031;-95
2023/03/16 11:37:04;;;;;;;4.68;2.35;;;;;;;10.81;58.36;101276.91;4891290;29;20035;-94
2023/03/16 11:39:39;;;;;;;5.53;2.40;;;;;;;10.93;58.09;101276.38;4892634;29;20044;-94